sensor_id;sensor_type;location;lat;lon;timestamp;temperature;humidity
40153;DHT22;26371;56.992;23.912;2023-02-01T00:01:23;0.90;99.90
40153;DHT22;26371;56.992;23.912;2023-02-01T00:03:52;0.90;99.90
40153;DHT22;26371;56.992;23.912;2023-02-01T00:06:21;0.90;99.90
40153;DHT22;26371;56.992;23.912;2023-02-01T00:08:52;0.90;99.90
40153;DHT22;26371;56.992;23.912;2023-02-01T00:11:22;1.00;99.90
40153;DHT22;26371;56.992;23.912;2023-02-01T00:13:51;1.00;99.90
40153;DHT22;26371;56.992;23.912;2023-02-01T00:16:22;0.90;99.90
40153;DHT22;26371;56.992;23.912;2023-02-01T00:18:55;0.90;99.90
40153;DHT22;26371;56.992;23.912;2023-02-01T00:21:24;1.00;99.90
40153;DHT22;26371;56.992;23.912;2023-02-01T00:23:53;1.00;99.90
40153;DHT22;26371;56.992;23.912;2023-02-01T00:26:27;0.90;99.90
40153;DHT22;26371;56.992;23.912;2023-02-01T00:28:58;1.00;99.90
40153;DHT22;26371;56.992;23.912;2023-02-01T00:31:27;1.00;99.90
40153;DHT22;26371;56.992;23.912;2023-02-01T00:33:55;1.00;99.90
40153;DHT22;26371;56.992;23.912;2023-02-01T00:36:24;1.00;99.90
40153;DHT22;26371;56.992;23.912;2023-02-01T00:38:53;1.00;99.90
40153;DHT22;26371;56.992;23.912;2023-02-01T00:41:23;0.90;99.90
40153;DHT22;26371;56.992;23.912;2023-02-01T00:43:52;1.00;99.90
40153;DHT22;26371;56.992;23.912;2023-02-01T00:46:20;1.00;99.90
40153;DHT22;26371;56.992;23.912;2023-02-01T00:48:50;0.90;99.90
40153;DHT22;26371;56.992;23.912;2023-02-01T00:51:19;1.00;99.90
40153;DHT22;26371;56.992;23.912;2023-02-01T00:53:49;1.00;99.90
40153;DHT22;26371;56.992;23.912;2023-02-01T00:56:18;1.00;99.90
40153;DHT22;26371;56.992;23.912;2023-02-01T00:58:48;1.00;99.90
40153;DHT22;26371;56.992;23.912;2023-02-01T01:01:18;1.00;99.90
40153;DHT22;26371;56.992;23.912;2023-02-01T01:03:47;1.00;99.90
40153;DHT22;26371;56.992;23.912;2023-02-01T01:06:20;1.00;99.90
40153;DHT22;26371;56.992;23.912;2023-02-01T01:08:50;1.00;99.90
40153;DHT22;26371;56.992;23.912;2023-02-01T01:11:21;1.00;99.90
40153;DHT22;26371;56.992;23.912;2023-02-01T01:13:53;1.00;99.90
40153;DHT22;26371;56.992;23.912;2023-02-01T01:16:23;1.00;99.90
40153;DHT22;26371;56.992;23.912;2023-02-01T01:18:52;1.00;99.90
40153;DHT22;26371;56.992;23.912;2023-02-01T01:21:21;1.00;99.90
40153;DHT22;26371;56.992;23.912;2023-02-01T01:23:50;1.00;99.90
40153;DHT22;26371;56.992;23.912;2023-02-01T01:26:20;1.10;99.90
40153;DHT22;26371;56.992;23.912;2023-02-01T01:28:51;1.00;99.90
40153;DHT22;26371;56.992;23.912;2023-02-01T01:31:20;1.00;99.90
40153;DHT22;26371;56.992;23.912;2023-02-01T01:33:50;1.00;99.90
40153;DHT22;26371;56.992;23.912;2023-02-01T01:36:20;1.00;99.90
40153;DHT22;26371;56.992;23.912;2023-02-01T01:38:49;1.00;99.90
40153;DHT22;26371;56.992;23.912;2023-02-01T01:41:20;1.00;99.90
40153;DHT22;26371;56.992;23.912;2023-02-01T01:43:53;1.00;99.90
40153;DHT22;26371;56.992;23.912;2023-02-01T01:46:25;0.90;99.90
40153;DHT22;26371;56.992;23.912;2023-02-01T01:48:59;1.00;99.90
40153;DHT22;26371;56.992;23.912;2023-02-01T01:51:31;1.00;99.90
40153;DHT22;26371;56.992;23.912;2023-02-01T01:54:10;1.00;99.90
40153;DHT22;26371;56.992;23.912;2023-02-01T01:56:41;1.00;99.90
40153;DHT22;26371;56.992;23.912;2023-02-01T01:59:11;1.00;99.90
40153;DHT22;26371;56.992;23.912;2023-02-01T02:01:40;1.00;99.90
40153;DHT22;26371;56.992;23.912;2023-02-01T02:04:09;1.00;99.90
40153;DHT22;26371;56.992;23.912;2023-02-01T02:06:42;1.00;99.90
40153;DHT22;26371;56.992;23.912;2023-02-01T02:09:12;1.10;99.90
40153;DHT22;26371;56.992;23.912;2023-02-01T02:11:41;1.00;99.90
40153;DHT22;26371;56.992;23.912;2023-02-01T02:14:13;1.10;99.90
40153;DHT22;26371;56.992;23.912;2023-02-01T02:17:03;1.00;99.90
40153;DHT22;26371;56.992;23.912;2023-02-01T02:23:10;1.00;99.90
40153;DHT22;26371;56.992;23.912;2023-02-01T02:29:25;1.00;99.90
40153;DHT22;26371;56.992;23.912;2023-02-01T02:35:02;1.10;99.90
40153;DHT22;26371;56.992;23.912;2023-02-01T02:37:37;1.10;99.90
40153;DHT22;26371;56.992;23.912;2023-02-01T02:40:15;1.00;99.90
40153;DHT22;26371;56.992;23.912;2023-02-01T02:42:52;1.00;99.90
40153;DHT22;26371;56.992;23.912;2023-02-01T02:45:43;1.00;99.90
40153;DHT22;26371;56.992;23.912;2023-02-01T02:48:30;1.00;99.90
40153;DHT22;26371;56.992;23.912;2023-02-01T02:51:10;1.00;99.90
40153;DHT22;26371;56.992;23.912;2023-02-01T02:54:02;1.10;99.90
40153;DHT22;26371;56.992;23.912;2023-02-01T02:56:51;1.00;99.90
40153;DHT22;26371;56.992;23.912;2023-02-01T02:59:38;1.00;99.90
40153;DHT22;26371;56.992;23.912;2023-02-01T03:02:26;1.00;99.90
40153;DHT22;26371;56.992;23.912;2023-02-01T03:05:13;1.00;99.90
40153;DHT22;26371;56.992;23.912;2023-02-01T03:07:55;1.00;99.90
40153;DHT22;26371;56.992;23.912;2023-02-01T03:10:32;1.00;99.90
40153;DHT22;26371;56.992;23.912;2023-02-01T03:13:04;1.10;99.90
40153;DHT22;26371;56.992;23.912;2023-02-01T03:15:37;1.10;99.90
40153;DHT22;26371;56.992;23.912;2023-02-01T03:18:11;1.10;99.90
40153;DHT22;26371;56.992;23.912;2023-02-01T03:20:44;1.00;99.90
40153;DHT22;26371;56.992;23.912;2023-02-01T03:23:16;1.00;99.90
40153;DHT22;26371;56.992;23.912;2023-02-01T03:25:47;1.00;99.90
40153;DHT22;26371;56.992;23.912;2023-02-01T03:28:18;1.00;99.90
40153;DHT22;26371;56.992;23.912;2023-02-01T03:30:49;1.00;99.90
40153;DHT22;26371;56.992;23.912;2023-02-01T03:33:20;1.00;99.90
40153;DHT22;26371;56.992;23.912;2023-02-01T03:35:57;1.00;99.90
40153;DHT22;26371;56.992;23.912;2023-02-01T03:38:32;1.00;99.90
40153;DHT22;26371;56.992;23.912;2023-02-01T03:41:08;1.00;99.90
40153;DHT22;26371;56.992;23.912;2023-02-01T03:43:45;1.10;99.90
40153;DHT22;26371;56.992;23.912;2023-02-01T03:46:20;1.10;99.90
40153;DHT22;26371;56.992;23.912;2023-02-01T03:48:53;1.00;99.90
40153;DHT22;26371;56.992;23.912;2023-02-01T03:51:23;1.00;99.90
40153;DHT22;26371;56.992;23.912;2023-02-01T03:53:54;1.00;99.90
40153;DHT22;26371;56.992;23.912;2023-02-01T03:56:25;1.00;99.90
40153;DHT22;26371;56.992;23.912;2023-02-01T03:58:56;1.10;99.90
40153;DHT22;26371;56.992;23.912;2023-02-01T04:01:32;1.00;99.90
40153;DHT22;26371;56.992;23.912;2023-02-01T04:04:01;1.00;99.90
40153;DHT22;26371;56.992;23.912;2023-02-01T04:06:31;1.00;99.90
40153;DHT22;26371;56.992;23.912;2023-02-01T04:09:03;1.10;99.90
40153;DHT22;26371;56.992;23.912;2023-02-01T04:11:32;1.10;99.90
40153;DHT22;26371;56.992;23.912;2023-02-01T04:14:00;1.10;99.90
40153;DHT22;26371;56.992;23.912;2023-02-01T04:16:31;1.10;99.90
40153;DHT22;26371;56.992;23.912;2023-02-01T04:19:00;1.10;99.90
40153;DHT22;26371;56.992;23.912;2023-02-01T04:21:29;1.10;99.90
40153;DHT22;26371;56.992;23.912;2023-02-01T04:23:58;1.10;99.90
40153;DHT22;26371;56.992;23.912;2023-02-01T04:26:28;1.10;99.90
40153;DHT22;26371;56.992;23.912;2023-02-01T04:28:56;1.10;99.90
40153;DHT22;26371;56.992;23.912;2023-02-01T04:31:25;1.10;99.90
40153;DHT22;26371;56.992;23.912;2023-02-01T04:33:55;1.10;99.90
40153;DHT22;26371;56.992;23.912;2023-02-01T04:36:24;1.10;99.90
40153;DHT22;26371;56.992;23.912;2023-02-01T04:38:53;1.10;99.90
40153;DHT22;26371;56.992;23.912;2023-02-01T04:41:21;1.10;99.90
40153;DHT22;26371;56.992;23.912;2023-02-01T04:43:51;1.10;99.90
40153;DHT22;26371;56.992;23.912;2023-02-01T04:46:20;1.10;99.90
40153;DHT22;26371;56.992;23.912;2023-02-01T04:48:48;1.10;99.90
40153;DHT22;26371;56.992;23.912;2023-02-01T04:51:17;1.10;99.90
40153;DHT22;26371;56.992;23.912;2023-02-01T04:53:46;1.10;99.90
40153;DHT22;26371;56.992;23.912;2023-02-01T04:56:14;1.10;99.90
40153;DHT22;26371;56.992;23.912;2023-02-01T04:58:42;1.10;99.90
40153;DHT22;26371;56.992;23.912;2023-02-01T05:01:12;1.10;99.90
40153;DHT22;26371;56.992;23.912;2023-02-01T05:03:41;1.10;99.90
40153;DHT22;26371;56.992;23.912;2023-02-01T05:06:09;1.10;99.90
40153;DHT22;26371;56.992;23.912;2023-02-01T05:08:38;1.20;99.90
40153;DHT22;26371;56.992;23.912;2023-02-01T05:11:06;1.10;99.90
40153;DHT22;26371;56.992;23.912;2023-02-01T05:13:55;1.10;99.90
40153;DHT22;26371;56.992;23.912;2023-02-01T05:16:24;1.20;99.90
40153;DHT22;26371;56.992;23.912;2023-02-01T05:18:53;1.10;99.90
40153;DHT22;26371;56.992;23.912;2023-02-01T05:21:21;1.10;99.90
40153;DHT22;26371;56.992;23.912;2023-02-01T05:23:50;1.20;99.90
40153;DHT22;26371;56.992;23.912;2023-02-01T05:26:37;1.20;99.90
40153;DHT22;26371;56.992;23.912;2023-02-01T05:29:06;1.20;99.90
40153;DHT22;26371;56.992;23.912;2023-02-01T05:31:36;1.20;99.90
40153;DHT22;26371;56.992;23.912;2023-02-01T05:34:05;1.20;99.90
40153;DHT22;26371;56.992;23.912;2023-02-01T05:36:34;1.30;99.90
40153;DHT22;26371;56.992;23.912;2023-02-01T05:39:03;1.20;99.90
40153;DHT22;26371;56.992;23.912;2023-02-01T05:41:31;1.20;99.90
40153;DHT22;26371;56.992;23.912;2023-02-01T05:44:00;1.10;99.90
40153;DHT22;26371;56.992;23.912;2023-02-01T05:46:28;1.20;99.90
40153;DHT22;26371;56.992;23.912;2023-02-01T05:48:59;1.20;99.90
40153;DHT22;26371;56.992;23.912;2023-02-01T05:51:27;1.20;99.90
40153;DHT22;26371;56.992;23.912;2023-02-01T05:53:56;1.10;99.90
40153;DHT22;26371;56.992;23.912;2023-02-01T05:56:24;1.20;99.90
40153;DHT22;26371;56.992;23.912;2023-02-01T05:58:53;1.20;99.90
40153;DHT22;26371;56.992;23.912;2023-02-01T06:01:22;1.20;99.90
40153;DHT22;26371;56.992;23.912;2023-02-01T06:03:50;1.20;99.90
40153;DHT22;26371;56.992;23.912;2023-02-01T06:06:21;1.10;99.90
40153;DHT22;26371;56.992;23.912;2023-02-01T06:08:49;1.20;99.90
40153;DHT22;26371;56.992;23.912;2023-02-01T06:11:18;1.20;99.90
40153;DHT22;26371;56.992;23.912;2023-02-01T06:13:58;1.10;99.90
40153;DHT22;26371;56.992;23.912;2023-02-01T06:16:27;1.20;99.90
40153;DHT22;26371;56.992;23.912;2023-02-01T06:18:55;1.20;99.90
40153;DHT22;26371;56.992;23.912;2023-02-01T06:21:25;1.20;99.90
40153;DHT22;26371;56.992;23.912;2023-02-01T06:23:54;1.20;99.90
40153;DHT22;26371;56.992;23.912;2023-02-01T06:26:24;1.20;99.90
40153;DHT22;26371;56.992;23.912;2023-02-01T06:28:55;1.20;99.90
40153;DHT22;26371;56.992;23.912;2023-02-01T06:31:24;1.30;99.90
40153;DHT22;26371;56.992;23.912;2023-02-01T06:33:53;1.20;99.90
40153;DHT22;26371;56.992;23.912;2023-02-01T06:36:22;1.20;99.90
40153;DHT22;26371;56.992;23.912;2023-02-01T06:38:52;1.20;99.90
40153;DHT22;26371;56.992;23.912;2023-02-01T06:41:21;1.20;99.90
40153;DHT22;26371;56.992;23.912;2023-02-01T06:43:49;1.30;99.90
40153;DHT22;26371;56.992;23.912;2023-02-01T06:46:18;1.20;99.90
40153;DHT22;26371;56.992;23.912;2023-02-01T06:48:46;1.20;99.90
40153;DHT22;26371;56.992;23.912;2023-02-01T06:51:18;1.20;99.90
40153;DHT22;26371;56.992;23.912;2023-02-01T06:53:46;1.30;99.90
40153;DHT22;26371;56.992;23.912;2023-02-01T06:56:16;1.30;99.90
40153;DHT22;26371;56.992;23.912;2023-02-01T06:58:45;1.30;99.90
40153;DHT22;26371;56.992;23.912;2023-02-01T07:01:14;1.20;99.90
40153;DHT22;26371;56.992;23.912;2023-02-01T07:03:42;1.20;99.90
40153;DHT22;26371;56.992;23.912;2023-02-01T07:06:11;1.20;99.90
40153;DHT22;26371;56.992;23.912;2023-02-01T07:08:39;1.30;99.90
40153;DHT22;26371;56.992;23.912;2023-02-01T07:11:09;1.30;99.90
40153;DHT22;26371;56.992;23.912;2023-02-01T07:13:39;1.20;99.90
40153;DHT22;26371;56.992;23.912;2023-02-01T07:16:11;1.20;99.90
40153;DHT22;26371;56.992;23.912;2023-02-01T07:18:40;1.30;99.90
40153;DHT22;26371;56.992;23.912;2023-02-01T07:21:09;1.30;99.90
40153;DHT22;26371;56.992;23.912;2023-02-01T07:23:38;1.30;99.90
40153;DHT22;26371;56.992;23.912;2023-02-01T07:26:09;1.30;99.90
40153;DHT22;26371;56.992;23.912;2023-02-01T07:28:39;1.30;99.90
40153;DHT22;26371;56.992;23.912;2023-02-01T07:31:09;1.40;99.90
40153;DHT22;26371;56.992;23.912;2023-02-01T07:33:38;1.30;99.90
40153;DHT22;26371;56.992;23.912;2023-02-01T07:36:10;1.30;99.90
40153;DHT22;26371;56.992;23.912;2023-02-01T07:38:39;1.40;99.90
40153;DHT22;26371;56.992;23.912;2023-02-01T07:41:08;1.40;99.90
40153;DHT22;26371;56.992;23.912;2023-02-01T07:43:36;1.40;99.90
40153;DHT22;26371;56.992;23.912;2023-02-01T07:46:07;1.40;99.90
40153;DHT22;26371;56.992;23.912;2023-02-01T07:48:35;1.40;99.90
40153;DHT22;26371;56.992;23.912;2023-02-01T07:51:05;1.50;99.90
40153;DHT22;26371;56.992;23.912;2023-02-01T07:53:34;1.50;99.90
40153;DHT22;26371;56.992;23.912;2023-02-01T07:56:03;1.50;99.90
40153;DHT22;26371;56.992;23.912;2023-02-01T07:58:32;1.50;99.90
40153;DHT22;26371;56.992;23.912;2023-02-01T08:01:00;1.50;99.90
40153;DHT22;26371;56.992;23.912;2023-02-01T08:03:49;1.50;99.90
40153;DHT22;26371;56.992;23.912;2023-02-01T08:06:18;1.50;99.90
40153;DHT22;26371;56.992;23.912;2023-02-01T08:08:47;1.50;99.90
40153;DHT22;26371;56.992;23.912;2023-02-01T08:11:17;1.50;99.90
40153;DHT22;26371;56.992;23.912;2023-02-01T08:13:46;1.50;99.90
40153;DHT22;26371;56.992;23.912;2023-02-01T08:16:16;1.50;99.90
40153;DHT22;26371;56.992;23.912;2023-02-01T08:18:45;1.50;99.90
40153;DHT22;26371;56.992;23.912;2023-02-01T08:21:16;1.50;99.90
40153;DHT22;26371;56.992;23.912;2023-02-01T08:23:46;1.60;99.90
40153;DHT22;26371;56.992;23.912;2023-02-01T08:26:16;1.50;99.90
40153;DHT22;26371;56.992;23.912;2023-02-01T08:28:47;1.50;99.90
40153;DHT22;26371;56.992;23.912;2023-02-01T08:31:19;1.50;99.90
40153;DHT22;26371;56.992;23.912;2023-02-01T08:33:50;1.50;99.90
40153;DHT22;26371;56.992;23.912;2023-02-01T08:36:20;1.50;99.90
40153;DHT22;26371;56.992;23.912;2023-02-01T08:38:50;1.50;99.90
40153;DHT22;26371;56.992;23.912;2023-02-01T08:41:20;1.50;99.90
40153;DHT22;26371;56.992;23.912;2023-02-01T08:43:49;1.50;99.90
40153;DHT22;26371;56.992;23.912;2023-02-01T08:46:17;1.50;99.90
40153;DHT22;26371;56.992;23.912;2023-02-01T08:48:46;1.60;99.90
40153;DHT22;26371;56.992;23.912;2023-02-01T08:51:16;1.60;99.90
40153;DHT22;26371;56.992;23.912;2023-02-01T08:53:47;1.60;99.90
40153;DHT22;26371;56.992;23.912;2023-02-01T08:56:17;1.60;99.90
40153;DHT22;26371;56.992;23.912;2023-02-01T08:58:46;1.60;99.90
40153;DHT22;26371;56.992;23.912;2023-02-01T09:01:16;1.60;99.90
40153;DHT22;26371;56.992;23.912;2023-02-01T09:03:45;1.60;99.90
40153;DHT22;26371;56.992;23.912;2023-02-01T09:06:14;1.50;99.90
40153;DHT22;26371;56.992;23.912;2023-02-01T09:08:43;1.40;99.90
40153;DHT22;26371;56.992;23.912;2023-02-01T09:11:16;1.40;99.90
40153;DHT22;26371;56.992;23.912;2023-02-01T09:13:46;1.40;99.90
40153;DHT22;26371;56.992;23.912;2023-02-01T09:16:15;1.50;99.90
40153;DHT22;26371;56.992;23.912;2023-02-01T09:18:44;1.60;99.90
40153;DHT22;26371;56.992;23.912;2023-02-01T09:21:28;1.70;99.90
40153;DHT22;26371;56.992;23.912;2023-02-01T09:23:56;1.70;99.90
40153;DHT22;26371;56.992;23.912;2023-02-01T09:26:26;1.70;99.90
40153;DHT22;26371;56.992;23.912;2023-02-01T09:28:59;1.70;99.90
40153;DHT22;26371;56.992;23.912;2023-02-01T09:31:28;1.70;99.90
40153;DHT22;26371;56.992;23.912;2023-02-01T09:33:57;1.70;99.90
40153;DHT22;26371;56.992;23.912;2023-02-01T09:36:25;1.70;99.90
40153;DHT22;26371;56.992;23.912;2023-02-01T09:38:57;1.80;99.90
40153;DHT22;26371;56.992;23.912;2023-02-01T09:41:35;1.80;99.90
40153;DHT22;26371;56.992;23.912;2023-02-01T09:44:17;1.80;99.90
40153;DHT22;26371;56.992;23.912;2023-02-01T09:46:46;1.80;99.90
40153;DHT22;26371;56.992;23.912;2023-02-01T09:49:18;1.80;99.90
40153;DHT22;26371;56.992;23.912;2023-02-01T09:51:49;1.80;99.90
40153;DHT22;26371;56.992;23.912;2023-02-01T09:54:22;1.80;99.90
40153;DHT22;26371;56.992;23.912;2023-02-01T09:56:56;1.90;99.90
40153;DHT22;26371;56.992;23.912;2023-02-01T09:59:32;1.90;99.90
40153;DHT22;26371;56.992;23.912;2023-02-01T10:02:03;1.90;99.90
40153;DHT22;26371;56.992;23.912;2023-02-01T10:04:33;1.90;99.90
40153;DHT22;26371;56.992;23.912;2023-02-01T10:07:08;1.90;99.90
40153;DHT22;26371;56.992;23.912;2023-02-01T10:09:47;1.90;99.90
40153;DHT22;26371;56.992;23.912;2023-02-01T10:12:57;1.90;99.90
40153;DHT22;26371;56.992;23.912;2023-02-01T10:15:38;1.90;99.90
40153;DHT22;26371;56.992;23.912;2023-02-01T10:18:17;1.90;99.90
40153;DHT22;26371;56.992;23.912;2023-02-01T10:20:56;1.90;99.90
40153;DHT22;26371;56.992;23.912;2023-02-01T10:26:45;2.00;99.90
40153;DHT22;26371;56.992;23.912;2023-02-01T10:29:18;2.00;99.90
40153;DHT22;26371;56.992;23.912;2023-02-01T10:31:47;2.00;99.90
40153;DHT22;26371;56.992;23.912;2023-02-01T10:34:18;2.00;99.90
40153;DHT22;26371;56.992;23.912;2023-02-01T10:36:54;2.00;99.90
40153;DHT22;26371;56.992;23.912;2023-02-01T10:39:24;2.00;99.90
40153;DHT22;26371;56.992;23.912;2023-02-01T10:41:54;2.00;99.90
40153;DHT22;26371;56.992;23.912;2023-02-01T10:44:28;2.00;99.90
40153;DHT22;26371;56.992;23.912;2023-02-01T10:46:58;2.00;99.90
40153;DHT22;26371;56.992;23.912;2023-02-01T10:49:29;2.00;99.90
40153;DHT22;26371;56.992;23.912;2023-02-01T10:52:07;1.90;99.90
40153;DHT22;26371;56.992;23.912;2023-02-01T10:54:39;1.90;99.90
40153;DHT22;26371;56.992;23.912;2023-02-01T10:57:10;1.90;99.90
40153;DHT22;26371;56.992;23.912;2023-02-01T10:59:39;1.90;99.90
40153;DHT22;26371;56.992;23.912;2023-02-01T11:02:19;2.00;99.90
40153;DHT22;26371;56.992;23.912;2023-02-01T11:04:48;2.00;99.90
40153;DHT22;26371;56.992;23.912;2023-02-01T11:07:23;2.00;99.90
40153;DHT22;26371;56.992;23.912;2023-02-01T11:09:54;2.00;99.90
40153;DHT22;26371;56.992;23.912;2023-02-01T11:12:29;2.00;99.90
40153;DHT22;26371;56.992;23.912;2023-02-01T11:15:11;2.00;99.90
40153;DHT22;26371;56.992;23.912;2023-02-01T11:17:43;2.10;99.90
40153;DHT22;26371;56.992;23.912;2023-02-01T11:20:16;2.10;99.90
40153;DHT22;26371;56.992;23.912;2023-02-01T11:22:52;2.10;99.90
40153;DHT22;26371;56.992;23.912;2023-02-01T11:25:22;2.10;99.90
40153;DHT22;26371;56.992;23.912;2023-02-01T11:27:54;2.10;99.90
40153;DHT22;26371;56.992;23.912;2023-02-01T11:30:33;2.10;99.90
40153;DHT22;26371;56.992;23.912;2023-02-01T11:33:03;2.10;99.90
40153;DHT22;26371;56.992;23.912;2023-02-01T11:35:37;2.10;99.90
40153;DHT22;26371;56.992;23.912;2023-02-01T11:38:15;2.10;99.90
40153;DHT22;26371;56.992;23.912;2023-02-01T11:40:47;2.10;99.90
40153;DHT22;26371;56.992;23.912;2023-02-01T11:43:22;2.10;99.90
40153;DHT22;26371;56.992;23.912;2023-02-01T11:45:57;2.10;99.90
40153;DHT22;26371;56.992;23.912;2023-02-01T11:48:27;2.00;99.90
40153;DHT22;26371;56.992;23.912;2023-02-01T11:51:15;2.00;99.90
40153;DHT22;26371;56.992;23.912;2023-02-01T11:54:08;2.00;99.90
40153;DHT22;26371;56.992;23.912;2023-02-01T11:56:47;2.00;99.90
40153;DHT22;26371;56.992;23.912;2023-02-01T11:59:35;2.00;99.90
40153;DHT22;26371;56.992;23.912;2023-02-01T12:02:24;2.10;99.90
40153;DHT22;26371;56.992;23.912;2023-02-01T12:05:06;2.10;99.90
40153;DHT22;26371;56.992;23.912;2023-02-01T12:07:51;2.10;99.90
40153;DHT22;26371;56.992;23.912;2023-02-01T12:10:35;2.10;99.90
40153;DHT22;26371;56.992;23.912;2023-02-01T12:13:14;2.20;99.90
40153;DHT22;26371;56.992;23.912;2023-02-01T12:15:53;2.30;99.90
40153;DHT22;26371;56.992;23.912;2023-02-01T12:18:56;2.20;99.90
40153;DHT22;26371;56.992;23.912;2023-02-01T12:21:49;2.30;99.90
40153;DHT22;26371;56.992;23.912;2023-02-01T12:27:45;2.20;99.90
40153;DHT22;26371;56.992;23.912;2023-02-01T12:30:40;2.20;99.90
40153;DHT22;26371;56.992;23.912;2023-02-01T12:33:20;2.20;99.90
40153;DHT22;26371;56.992;23.912;2023-02-01T12:36:03;2.20;99.90
40153;DHT22;26371;56.992;23.912;2023-02-01T12:38:44;2.20;99.90
40153;DHT22;26371;56.992;23.912;2023-02-01T12:41:31;2.10;99.90
40153;DHT22;26371;56.992;23.912;2023-02-01T12:44:03;2.10;99.90
40153;DHT22;26371;56.992;23.912;2023-02-01T12:46:37;2.00;99.90
40153;DHT22;26371;56.992;23.912;2023-02-01T12:49:12;2.00;99.90
40153;DHT22;26371;56.992;23.912;2023-02-01T12:51:46;2.00;99.90
40153;DHT22;26371;56.992;23.912;2023-02-01T12:54:26;2.00;99.90
40153;DHT22;26371;56.992;23.912;2023-02-01T12:56:58;2.00;99.90
40153;DHT22;26371;56.992;23.912;2023-02-01T12:59:34;2.00;99.90
40153;DHT22;26371;56.992;23.912;2023-02-01T13:02:11;2.00;99.90
40153;DHT22;26371;56.992;23.912;2023-02-01T13:04:55;2.00;99.90
40153;DHT22;26371;56.992;23.912;2023-02-01T13:07:31;2.00;99.90
40153;DHT22;26371;56.992;23.912;2023-02-01T13:10:11;2.00;99.90
40153;DHT22;26371;56.992;23.912;2023-02-01T13:12:44;2.00;99.90
40153;DHT22;26371;56.992;23.912;2023-02-01T13:15:19;2.00;99.90
40153;DHT22;26371;56.992;23.912;2023-02-01T13:17:49;2.00;99.90
40153;DHT22;26371;56.992;23.912;2023-02-01T13:20:25;2.00;99.90
40153;DHT22;26371;56.992;23.912;2023-02-01T13:23:01;2.00;99.90
40153;DHT22;26371;56.992;23.912;2023-02-01T13:25:35;2.00;99.90
40153;DHT22;26371;56.992;23.912;2023-02-01T13:28:10;2.00;99.90
40153;DHT22;26371;56.992;23.912;2023-02-01T13:30:53;2.10;99.90
40153;DHT22;26371;56.992;23.912;2023-02-01T13:33:36;2.10;99.90
40153;DHT22;26371;56.992;23.912;2023-02-01T13:40:03;2.00;99.90
40153;DHT22;26371;56.992;23.912;2023-02-01T13:42:41;1.90;99.90
40153;DHT22;26371;56.992;23.912;2023-02-01T13:45:15;1.90;99.90
40153;DHT22;26371;56.992;23.912;2023-02-01T13:47:47;1.90;99.90
40153;DHT22;26371;56.992;23.912;2023-02-01T13:50:24;1.90;99.90
40153;DHT22;26371;56.992;23.912;2023-02-01T13:52:55;1.80;99.90
40153;DHT22;26371;56.992;23.912;2023-02-01T13:55:36;1.80;99.90
40153;DHT22;26371;56.992;23.912;2023-02-01T13:58:18;1.80;99.90
40153;DHT22;26371;56.992;23.912;2023-02-01T14:00:49;1.70;99.90
40153;DHT22;26371;56.992;23.912;2023-02-01T14:03:20;1.70;99.90
40153;DHT22;26371;56.992;23.912;2023-02-01T14:06:14;1.70;99.90
40153;DHT22;26371;56.992;23.912;2023-02-01T14:08:46;1.70;99.90
40153;DHT22;26371;56.992;23.912;2023-02-01T14:11:40;1.70;99.90
40153;DHT22;26371;56.992;23.912;2023-02-01T14:14:43;1.70;99.90
40153;DHT22;26371;56.992;23.912;2023-02-01T14:17:36;1.70;99.90
40153;DHT22;26371;56.992;23.912;2023-02-01T14:23:27;1.70;99.90
40153;DHT22;26371;56.992;23.912;2023-02-01T14:26:07;1.60;99.90
40153;DHT22;26371;56.992;23.912;2023-02-01T14:28:51;1.60;99.90
40153;DHT22;26371;56.992;23.912;2023-02-01T14:31:52;1.60;99.90
40153;DHT22;26371;56.992;23.912;2023-02-01T14:34:30;1.50;99.90
40153;DHT22;26371;56.992;23.912;2023-02-01T14:37:01;1.50;99.90
40153;DHT22;26371;56.992;23.912;2023-02-01T14:39:37;1.50;99.90
40153;DHT22;26371;56.992;23.912;2023-02-01T14:42:22;1.40;99.90
40153;DHT22;26371;56.992;23.912;2023-02-01T14:44:55;1.50;99.90
40153;DHT22;26371;56.992;23.912;2023-02-01T14:47:31;1.50;99.90
40153;DHT22;26371;56.992;23.912;2023-02-01T14:52:50;1.50;99.90
40153;DHT22;26371;56.992;23.912;2023-02-01T14:55:25;1.40;99.90
40153;DHT22;26371;56.992;23.912;2023-02-01T14:57:57;1.40;99.90
40153;DHT22;26371;56.992;23.912;2023-02-01T15:00:30;1.30;99.90
40153;DHT22;26371;56.992;23.912;2023-02-01T15:03:22;1.40;99.90
40153;DHT22;26371;56.992;23.912;2023-02-01T15:05:55;1.30;99.90
40153;DHT22;26371;56.992;23.912;2023-02-01T15:10:58;1.30;99.90
40153;DHT22;26371;56.992;23.912;2023-02-01T15:13:29;1.20;99.90
40153;DHT22;26371;56.992;23.912;2023-02-01T15:16:04;1.20;99.90
40153;DHT22;26371;56.992;23.912;2023-02-01T15:18:32;1.20;99.90
40153;DHT22;26371;56.992;23.912;2023-02-01T15:21:02;1.20;99.90
40153;DHT22;26371;56.992;23.912;2023-02-01T15:24:10;1.20;99.90
40153;DHT22;26371;56.992;23.912;2023-02-01T15:26:39;1.20;99.90
40153;DHT22;26371;56.992;23.912;2023-02-01T15:29:11;1.30;99.90
40153;DHT22;26371;56.992;23.912;2023-02-01T15:31:43;1.30;99.90
40153;DHT22;26371;56.992;23.912;2023-02-01T15:34:12;1.30;99.90
40153;DHT22;26371;56.992;23.912;2023-02-01T15:36:41;1.30;99.90
40153;DHT22;26371;56.992;23.912;2023-02-01T15:39:26;1.30;99.90
40153;DHT22;26371;56.992;23.912;2023-02-01T15:41:58;1.30;99.90
40153;DHT22;26371;56.992;23.912;2023-02-01T15:44:34;1.30;99.90
40153;DHT22;26371;56.992;23.912;2023-02-01T15:47:16;1.40;99.90
40153;DHT22;26371;56.992;23.912;2023-02-01T15:49:46;1.40;99.90
40153;DHT22;26371;56.992;23.912;2023-02-01T15:52:26;1.40;99.90
40153;DHT22;26371;56.992;23.912;2023-02-01T15:54:57;1.40;99.90
40153;DHT22;26371;56.992;23.912;2023-02-01T15:57:30;1.50;99.90
40153;DHT22;26371;56.992;23.912;2023-02-01T16:00:03;1.50;99.90
40153;DHT22;26371;56.992;23.912;2023-02-01T16:02:51;1.50;99.90
40153;DHT22;26371;56.992;23.912;2023-02-01T16:05:30;1.50;99.90
40153;DHT22;26371;56.992;23.912;2023-02-01T16:08:03;1.50;99.90
40153;DHT22;26371;56.992;23.912;2023-02-01T16:10:38;1.50;99.90
40153;DHT22;26371;56.992;23.912;2023-02-01T16:13:07;1.50;99.90
40153;DHT22;26371;56.992;23.912;2023-02-01T16:15:36;1.50;99.90
40153;DHT22;26371;56.992;23.912;2023-02-01T16:18:06;1.50;99.90
40153;DHT22;26371;56.992;23.912;2023-02-01T16:20:37;1.50;99.90
40153;DHT22;26371;56.992;23.912;2023-02-01T16:23:06;1.50;99.90
40153;DHT22;26371;56.992;23.912;2023-02-01T16:25:35;1.40;99.90
40153;DHT22;26371;56.992;23.912;2023-02-01T16:28:04;1.40;99.90
40153;DHT22;26371;56.992;23.912;2023-02-01T16:30:33;1.40;99.90
40153;DHT22;26371;56.992;23.912;2023-02-01T16:33:02;1.40;99.90
40153;DHT22;26371;56.992;23.912;2023-02-01T16:35:34;1.40;99.90
40153;DHT22;26371;56.992;23.912;2023-02-01T16:38:04;1.40;99.90